sensor_id;sensor_type;location;lat;lon;timestamp;P1;durP1;ratioP1;P2;durP2;ratioP2
69087;SDS011;56190;43.562;5.036;2022-12-20T00:00:41;7.18;;;3.70;;
69087;SDS011;56190;43.562;5.036;2022-12-20T00:03:07;5.07;;;3.67;;
69087;SDS011;56190;43.562;5.036;2022-12-20T00:05:35;4.80;;;3.22;;
69087;SDS011;56190;43.562;5.036;2022-12-20T00:08:00;6.38;;;3.47;;
69087;SDS011;56190;43.562;5.036;2022-12-20T00:10:25;4.22;;;3.28;;
69087;SDS011;56190;43.562;5.036;2022-12-20T00:12:50;5.25;;;3.28;;
69087;SDS011;56190;43.562;5.036;2022-12-20T00:15:16;6.68;;;3.55;;
69087;SDS011;56190;43.562;5.036;2022-12-20T00:17:41;4.35;;;3.25;;
69087;SDS011;56190;43.562;5.036;2022-12-20T00:20:06;5.72;;;3.00;;
69087;SDS011;56190;43.562;5.036;2022-12-20T00:22:32;4.60;;;3.17;;
69087;SDS011;56190;43.562;5.036;2022-12-20T00:24:57;6.80;;;3.53;;
69087;SDS011;56190;43.562;5.036;2022-12-20T00:27:23;4.97;;;3.22;;
69087;SDS011;56190;43.562;5.036;2022-12-20T00:29:48;5.00;;;2.78;;
69087;SDS011;56190;43.562;5.036;2022-12-20T00:32:13;5.40;;;2.95;;
69087;SDS011;56190;43.562;5.036;2022-12-20T00:34:38;7.07;;;3.20;;
69087;SDS011;56190;43.562;5.036;2022-12-20T00:37:03;5.45;;;3.08;;
69087;SDS011;56190;43.562;5.036;2022-12-20T00:39:29;6.82;;;3.25;;
69087;SDS011;56190;43.562;5.036;2022-12-20T00:41:54;5.70;;;3.00;;
69087;SDS011;56190;43.562;5.036;2022-12-20T00:44:19;9.63;;;3.45;;
69087;SDS011;56190;43.562;5.036;2022-12-20T00:46:45;5.10;;;3.50;;
69087;SDS011;56190;43.562;5.036;2022-12-20T00:49:11;5.80;;;2.65;;
69087;SDS011;56190;43.562;5.036;2022-12-20T00:51:36;6.45;;;3.33;;
69087;SDS011;56190;43.562;5.036;2022-12-20T00:54:01;7.10;;;3.03;;
69087;SDS011;56190;43.562;5.036;2022-12-20T00:56:27;6.30;;;2.85;;
69087;SDS011;56190;43.562;5.036;2022-12-20T00:58:52;6.93;;;3.28;;
69087;SDS011;56190;43.562;5.036;2022-12-20T01:01:19;4.90;;;2.85;;
69087;SDS011;56190;43.562;5.036;2022-12-20T01:03:45;7.43;;;3.25;;
69087;SDS011;56190;43.562;5.036;2022-12-20T01:06:10;5.60;;;2.70;;
69087;SDS011;56190;43.562;5.036;2022-12-20T01:08:35;7.38;;;3.15;;
69087;SDS011;56190;43.562;5.036;2022-12-20T01:11:05;6.43;;;3.03;;
69087;SDS011;56190;43.562;5.036;2022-12-20T01:13:31;4.55;;;2.78;;
69087;SDS011;56190;43.562;5.036;2022-12-20T01:16:02;4.30;;;2.70;;
69087;SDS011;56190;43.562;5.036;2022-12-20T01:18:27;8.75;;;3.05;;
69087;SDS011;56190;43.562;5.036;2022-12-20T01:20:59;6.70;;;2.58;;
69087;SDS011;56190;43.562;5.036;2022-12-20T01:23:24;8.10;;;2.60;;
69087;SDS011;56190;43.562;5.036;2022-12-20T01:25:49;6.25;;;3.13;;
69087;SDS011;56190;43.562;5.036;2022-12-20T01:28:15;5.25;;;2.55;;
69087;SDS011;56190;43.562;5.036;2022-12-20T01:30:40;6.68;;;2.65;;
69087;SDS011;56190;43.562;5.036;2022-12-20T01:33:06;4.82;;;2.92;;
69087;SDS011;56190;43.562;5.036;2022-12-20T01:35:31;5.13;;;2.63;;
69087;SDS011;56190;43.562;5.036;2022-12-20T01:37:56;5.20;;;2.70;;
69087;SDS011;56190;43.562;5.036;2022-12-20T01:40:22;5.60;;;3.05;;
69087;SDS011;56190;43.562;5.036;2022-12-20T01:42:47;5.00;;;2.90;;
69087;SDS011;56190;43.562;5.036;2022-12-20T01:45:13;5.50;;;2.65;;
69087;SDS011;56190;43.562;5.036;2022-12-20T01:47:42;4.85;;;2.65;;
69087;SDS011;56190;43.562;5.036;2022-12-20T01:50:07;5.93;;;2.85;;
69087;SDS011;56190;43.562;5.036;2022-12-20T01:52:35;6.07;;;2.60;;
69087;SDS011;56190;43.562;5.036;2022-12-20T01:55:02;5.13;;;2.65;;
69087;SDS011;56190;43.562;5.036;2022-12-20T01:57:37;6.15;;;2.40;;
69087;SDS011;56190;43.562;5.036;2022-12-20T02:00:04;5.03;;;2.60;;
69087;SDS011;56190;43.562;5.036;2022-12-20T02:02:30;5.03;;;2.40;;
69087;SDS011;56190;43.562;5.036;2022-12-20T02:04:56;4.88;;;2.85;;
69087;SDS011;56190;43.562;5.036;2022-12-20T02:07:23;5.82;;;2.75;;
69087;SDS011;56190;43.562;5.036;2022-12-20T02:09:49;4.90;;;2.70;;
69087;SDS011;56190;43.562;5.036;2022-12-20T02:25:31;6.45;;;2.88;;
69087;SDS011;56190;43.562;5.036;2022-12-20T02:28:00;5.30;;;2.70;;
69087;SDS011;56190;43.562;5.036;2022-12-20T02:30:33;7.13;;;2.70;;
69087;SDS011;56190;43.562;5.036;2022-12-20T02:33:00;5.03;;;2.40;;
69087;SDS011;56190;43.562;5.036;2022-12-20T02:35:28;5.38;;;2.75;;
69087;SDS011;56190;43.562;5.036;2022-12-20T02:37:55;4.18;;;2.55;;
69087;SDS011;56190;43.562;5.036;2022-12-20T02:40:27;10.48;;;3.08;;
69087;SDS011;56190;43.562;5.036;2022-12-20T02:43:00;7.95;;;2.63;;
69087;SDS011;56190;43.562;5.036;2022-12-20T02:45:28;4.90;;;2.83;;
69087;SDS011;56190;43.562;5.036;2022-12-20T02:48:05;4.03;;;2.40;;
69087;SDS011;56190;43.562;5.036;2022-12-20T02:50:36;4.63;;;2.60;;
69087;SDS011;56190;43.562;5.036;2022-12-20T02:53:02;5.57;;;2.70;;
69087;SDS011;56190;43.562;5.036;2022-12-20T02:55:32;6.28;;;3.42;;
69087;SDS011;56190;43.562;5.036;2022-12-20T02:57:59;5.68;;;2.75;;
69087;SDS011;56190;43.562;5.036;2022-12-20T03:00:26;6.38;;;2.85;;
69087;SDS011;56190;43.562;5.036;2022-12-20T03:02:56;7.65;;;2.88;;
69087;SDS011;56190;43.562;5.036;2022-12-20T03:05:43;6.15;;;2.70;;
69087;SDS011;56190;43.562;5.036;2022-12-20T03:08:09;11.40;;;3.03;;
69087;SDS011;56190;43.562;5.036;2022-12-20T03:10:35;5.57;;;2.80;;
69087;SDS011;56190;43.562;5.036;2022-12-20T03:13:00;5.57;;;2.60;;
69087;SDS011;56190;43.562;5.036;2022-12-20T03:15:26;10.63;;;3.17;;
69087;SDS011;56190;43.562;5.036;2022-12-20T03:17:51;6.45;;;2.80;;
69087;SDS011;56190;43.562;5.036;2022-12-20T03:20:16;8.50;;;2.85;;
69087;SDS011;56190;43.562;5.036;2022-12-20T03:22:42;8.05;;;2.50;;
69087;SDS011;56190;43.562;5.036;2022-12-20T03:25:07;5.68;;;2.22;;
69087;SDS011;56190;43.562;5.036;2022-12-20T03:27:32;5.47;;;2.70;;
69087;SDS011;56190;43.562;5.036;2022-12-20T03:29:58;8.27;;;2.90;;
69087;SDS011;56190;43.562;5.036;2022-12-20T03:32:23;8.80;;;2.95;;
69087;SDS011;56190;43.562;5.036;2022-12-20T03:34:48;6.20;;;2.42;;
69087;SDS011;56190;43.562;5.036;2022-12-20T03:37:13;4.95;;;2.50;;
69087;SDS011;56190;43.562;5.036;2022-12-20T03:39:39;9.00;;;2.60;;
69087;SDS011;56190;43.562;5.036;2022-12-20T03:42:04;7.68;;;2.40;;
69087;SDS011;56190;43.562;5.036;2022-12-20T03:44:29;6.78;;;2.55;;
69087;SDS011;56190;43.562;5.036;2022-12-20T03:46:55;8.32;;;2.60;;
69087;SDS011;56190;43.562;5.036;2022-12-20T03:49:20;7.38;;;2.42;;
69087;SDS011;56190;43.562;5.036;2022-12-20T03:51:45;5.50;;;2.45;;
69087;SDS011;56190;43.562;5.036;2022-12-20T03:54:11;6.00;;;2.50;;
69087;SDS011;56190;43.562;5.036;2022-12-20T03:56:36;5.25;;;2.40;;
69087;SDS011;56190;43.562;5.036;2022-12-20T03:59:01;5.47;;;2.65;;
69087;SDS011;56190;43.562;5.036;2022-12-20T04:01:27;6.32;;;2.47;;
69087;SDS011;56190;43.562;5.036;2022-12-20T04:03:52;5.97;;;2.55;;
69087;SDS011;56190;43.562;5.036;2022-12-20T04:06:18;3.50;;;2.35;;
69087;SDS011;56190;43.562;5.036;2022-12-20T04:08:43;5.70;;;2.70;;
69087;SDS011;56190;43.562;5.036;2022-12-20T04:11:09;4.18;;;2.38;;
69087;SDS011;56190;43.562;5.036;2022-12-20T04:13:40;5.95;;;3.47;;
69087;SDS011;56190;43.562;5.036;2022-12-20T04:16:05;7.80;;;3.00;;
69087;SDS011;56190;43.562;5.036;2022-12-20T04:18:31;7.60;;;2.55;;
69087;SDS011;56190;43.562;5.036;2022-12-20T04:20:58;5.13;;;2.90;;
69087;SDS011;56190;43.562;5.036;2022-12-20T04:23:24;8.07;;;2.85;;
69087;SDS011;56190;43.562;5.036;2022-12-20T04:25:49;6.78;;;2.63;;
69087;SDS011;56190;43.562;5.036;2022-12-20T04:28:14;7.13;;;2.90;;
69087;SDS011;56190;43.562;5.036;2022-12-20T04:30:39;7.00;;;2.45;;
69087;SDS011;56190;43.562;5.036;2022-12-20T04:33:05;12.05;;;3.28;;
69087;SDS011;56190;43.562;5.036;2022-12-20T04:35:30;6.53;;;2.70;;
69087;SDS011;56190;43.562;5.036;2022-12-20T04:37:55;6.32;;;2.30;;
69087;SDS011;56190;43.562;5.036;2022-12-20T04:40:20;8.52;;;2.65;;
69087;SDS011;56190;43.562;5.036;2022-12-20T04:42:45;5.97;;;2.20;;
69087;SDS011;56190;43.562;5.036;2022-12-20T04:45:11;6.85;;;2.58;;
69087;SDS011;56190;43.562;5.036;2022-12-20T04:47:36;8.38;;;2.65;;
69087;SDS011;56190;43.562;5.036;2022-12-20T04:50:01;6.78;;;2.20;;
69087;SDS011;56190;43.562;5.036;2022-12-20T04:52:26;6.20;;;2.20;;
69087;SDS011;56190;43.562;5.036;2022-12-20T04:55:10;5.68;;;2.05;;
69087;SDS011;56190;43.562;5.036;2022-12-20T04:57:35;7.90;;;2.53;;
69087;SDS011;56190;43.562;5.036;2022-12-20T05:00:00;7.05;;;2.40;;
69087;SDS011;56190;43.562;5.036;2022-12-20T05:02:26;9.80;;;2.88;;
69087;SDS011;56190;43.562;5.036;2022-12-20T05:04:51;6.07;;;2.10;;
69087;SDS011;56190;43.562;5.036;2022-12-20T05:07:16;6.30;;;2.00;;
69087;SDS011;56190;43.562;5.036;2022-12-20T05:09:41;4.50;;;2.20;;
69087;SDS011;56190;43.562;5.036;2022-12-20T05:12:06;4.85;;;2.22;;
69087;SDS011;56190;43.562;5.036;2022-12-20T05:14:32;4.47;;;2.33;;
69087;SDS011;56190;43.562;5.036;2022-12-20T05:16:57;9.32;;;2.63;;
69087;SDS011;56190;43.562;5.036;2022-12-20T05:19:22;5.10;;;2.10;;
69087;SDS011;56190;43.562;5.036;2022-12-20T05:21:48;7.03;;;2.58;;
69087;SDS011;56190;43.562;5.036;2022-12-20T05:24:31;5.97;;;3.15;;
69087;SDS011;56190;43.562;5.036;2022-12-20T05:27:15;5.97;;;3.00;;
69087;SDS011;56190;43.562;5.036;2022-12-20T05:29:40;4.93;;;2.65;;
69087;SDS011;56190;43.562;5.036;2022-12-20T05:32:06;7.03;;;3.10;;
69087;SDS011;56190;43.562;5.036;2022-12-20T05:34:31;5.10;;;2.75;;
69087;SDS011;56190;43.562;5.036;2022-12-20T05:36:56;6.93;;;2.78;;
69087;SDS011;56190;43.562;5.036;2022-12-20T05:39:21;6.45;;;2.75;;
69087;SDS011;56190;43.562;5.036;2022-12-20T05:41:47;6.15;;;2.40;;
69087;SDS011;56190;43.562;5.036;2022-12-20T05:44:12;10.18;;;2.35;;
69087;SDS011;56190;43.562;5.036;2022-12-20T05:46:37;5.15;;;2.50;;
69087;SDS011;56190;43.562;5.036;2022-12-20T05:49:02;5.03;;;2.53;;
69087;SDS011;56190;43.562;5.036;2022-12-20T05:51:28;7.70;;;2.67;;
69087;SDS011;56190;43.562;5.036;2022-12-20T05:53:53;4.78;;;2.40;;
69087;SDS011;56190;43.562;5.036;2022-12-20T05:56:19;7.20;;;2.28;;
69087;SDS011;56190;43.562;5.036;2022-12-20T05:58:44;5.82;;;2.50;;
69087;SDS011;56190;43.562;5.036;2022-12-20T06:01:09;6.00;;;2.55;;
69087;SDS011;56190;43.562;5.036;2022-12-20T06:03:35;6.65;;;2.42;;
69087;SDS011;56190;43.562;5.036;2022-12-20T06:06:00;6.75;;;2.17;;
69087;SDS011;56190;43.562;5.036;2022-12-20T06:08:26;8.63;;;2.97;;
69087;SDS011;56190;43.562;5.036;2022-12-20T06:10:51;6.65;;;2.25;;
69087;SDS011;56190;43.562;5.036;2022-12-20T06:13:17;5.13;;;2.20;;
69087;SDS011;56190;43.562;5.036;2022-12-20T06:15:42;5.57;;;2.30;;
69087;SDS011;56190;43.562;5.036;2022-12-20T06:18:07;4.28;;;2.40;;
69087;SDS011;56190;43.562;5.036;2022-12-20T06:20:33;7.03;;;2.50;;
69087;SDS011;56190;43.562;5.036;2022-12-20T06:22:59;5.03;;;2.40;;
69087;SDS011;56190;43.562;5.036;2022-12-20T06:25:24;4.93;;;2.38;;
69087;SDS011;56190;43.562;5.036;2022-12-20T06:27:49;6.93;;;2.50;;
69087;SDS011;56190;43.562;5.036;2022-12-20T06:30:15;5.03;;;2.30;;
69087;SDS011;56190;43.562;5.036;2022-12-20T06:32:40;8.18;;;2.58;;
69087;SDS011;56190;43.562;5.036;2022-12-20T06:35:06;7.32;;;2.42;;
69087;SDS011;56190;43.562;5.036;2022-12-20T06:37:31;8.60;;;2.78;;
69087;SDS011;56190;43.562;5.036;2022-12-20T06:39:57;4.55;;;2.38;;
69087;SDS011;56190;43.562;5.036;2022-12-20T06:42:22;9.00;;;3.05;;
69087;SDS011;56190;43.562;5.036;2022-12-20T06:44:48;5.63;;;2.30;;
69087;SDS011;56190;43.562;5.036;2022-12-20T06:47:13;6.07;;;2.80;;
69087;SDS011;56190;43.562;5.036;2022-12-20T06:49:38;4.63;;;2.20;;
69087;SDS011;56190;43.562;5.036;2022-12-20T06:52:04;9.27;;;2.90;;
69087;SDS011;56190;43.562;5.036;2022-12-20T06:54:29;7.38;;;2.47;;
69087;SDS011;56190;43.562;5.036;2022-12-20T06:56:54;6.22;;;2.60;;
69087;SDS011;56190;43.562;5.036;2022-12-20T06:59:19;5.85;;;2.63;;
69087;SDS011;56190;43.562;5.036;2022-12-20T07:01:45;8.57;;;2.83;;
69087;SDS011;56190;43.562;5.036;2022-12-20T07:04:10;4.43;;;2.38;;
69087;SDS011;56190;43.562;5.036;2022-12-20T07:06:35;5.50;;;2.63;;
69087;SDS011;56190;43.562;5.036;2022-12-20T07:09:01;5.35;;;2.67;;
69087;SDS011;56190;43.562;5.036;2022-12-20T07:11:26;6.70;;;2.58;;
69087;SDS011;56190;43.562;5.036;2022-12-20T07:13:57;7.78;;;3.20;;
69087;SDS011;56190;43.562;5.036;2022-12-20T07:16:22;5.32;;;2.70;;
69087;SDS011;56190;43.562;5.036;2022-12-20T07:18:49;8.57;;;3.35;;
69087;SDS011;56190;43.562;5.036;2022-12-20T07:21:14;4.43;;;2.50;;
69087;SDS011;56190;43.562;5.036;2022-12-20T07:23:41;7.28;;;2.75;;
69087;SDS011;56190;43.562;5.036;2022-12-20T07:26:06;6.80;;;2.88;;
69087;SDS011;56190;43.562;5.036;2022-12-20T07:28:32;6.75;;;2.45;;
69087;SDS011;56190;43.562;5.036;2022-12-20T07:30:59;6.95;;;2.88;;
69087;SDS011;56190;43.562;5.036;2022-12-20T07:33:24;7.55;;;3.17;;
69087;SDS011;56190;43.562;5.036;2022-12-20T07:35:49;9.45;;;3.28;;
69087;SDS011;56190;43.562;5.036;2022-12-20T07:38:15;10.55;;;3.80;;
69087;SDS011;56190;43.562;5.036;2022-12-20T07:40:41;8.30;;;4.43;;
69087;SDS011;56190;43.562;5.036;2022-12-20T07:43:07;5.55;;;4.32;;
69087;SDS011;56190;43.562;5.036;2022-12-20T07:45:33;7.05;;;4.28;;
69087;SDS011;56190;43.562;5.036;2022-12-20T07:47:58;8.68;;;4.30;;
69087;SDS011;56190;43.562;5.036;2022-12-20T07:50:23;9.25;;;3.38;;
69087;SDS011;56190;43.562;5.036;2022-12-20T07:52:48;5.50;;;3.17;;
69087;SDS011;56190;43.562;5.036;2022-12-20T07:55:14;6.75;;;3.25;;
69087;SDS011;56190;43.562;5.036;2022-12-20T07:57:48;5.47;;;2.90;;
69087;SDS011;56190;43.562;5.036;2022-12-20T08:00:15;8.98;;;3.10;;
69087;SDS011;56190;43.562;5.036;2022-12-20T08:02:53;7.30;;;3.22;;
69087;SDS011;56190;43.562;5.036;2022-12-20T08:05:19;6.60;;;2.75;;
69087;SDS011;56190;43.562;5.036;2022-12-20T08:07:45;7.78;;;2.58;;
69087;SDS011;56190;43.562;5.036;2022-12-20T08:10:12;6.88;;;2.70;;
69087;SDS011;56190;43.562;5.036;2022-12-20T08:12:38;6.88;;;3.25;;
69087;SDS011;56190;43.562;5.036;2022-12-20T08:15:04;10.40;;;3.30;;
69087;SDS011;56190;43.562;5.036;2022-12-20T08:17:29;6.68;;;2.97;;
69087;SDS011;56190;43.562;5.036;2022-12-20T08:19:55;8.15;;;3.00;;
69087;SDS011;56190;43.562;5.036;2022-12-20T08:22:21;9.02;;;4.80;;
69087;SDS011;56190;43.562;5.036;2022-12-20T08:24:47;8.88;;;4.80;;
69087;SDS011;56190;43.562;5.036;2022-12-20T08:27:12;13.55;;;4.85;;
69087;SDS011;56190;43.562;5.036;2022-12-20T08:29:39;8.02;;;4.40;;
69087;SDS011;56190;43.562;5.036;2022-12-20T08:32:04;10.02;;;4.13;;
69087;SDS011;56190;43.562;5.036;2022-12-20T08:34:30;12.15;;;3.80;;
69087;SDS011;56190;43.562;5.036;2022-12-20T08:36:55;5.53;;;2.90;;
69087;SDS011;56190;43.562;5.036;2022-12-20T08:39:20;9.32;;;3.60;;
69087;SDS011;56190;43.562;5.036;2022-12-20T08:41:46;8.07;;;2.85;;
69087;SDS011;56190;43.562;5.036;2022-12-20T08:44:11;7.28;;;2.90;;
69087;SDS011;56190;43.562;5.036;2022-12-20T08:46:37;7.78;;;3.78;;
69087;SDS011;56190;43.562;5.036;2022-12-20T08:49:02;7.38;;;3.80;;
69087;SDS011;56190;43.562;5.036;2022-12-20T08:51:28;11.10;;;6.45;;
69087;SDS011;56190;43.562;5.036;2022-12-20T08:53:53;16.60;;;8.60;;
69087;SDS011;56190;43.562;5.036;2022-12-20T08:56:19;16.73;;;10.40;;
69087;SDS011;56190;43.562;5.036;2022-12-20T08:58:44;13.68;;;7.30;;
69087;SDS011;56190;43.562;5.036;2022-12-20T09:01:10;10.10;;;5.07;;
69087;SDS011;56190;43.562;5.036;2022-12-20T09:03:36;7.40;;;3.20;;
69087;SDS011;56190;43.562;5.036;2022-12-20T09:06:04;7.93;;;2.83;;
69087;SDS011;56190;43.562;5.036;2022-12-20T09:08:30;8.88;;;3.08;;
69087;SDS011;56190;43.562;5.036;2022-12-20T09:11:02;7.55;;;2.75;;
69087;SDS011;56190;43.562;5.036;2022-12-20T09:13:27;11.15;;;4.93;;
69087;SDS011;56190;43.562;5.036;2022-12-20T09:15:52;10.95;;;5.45;;
69087;SDS011;56190;43.562;5.036;2022-12-20T09:18:17;15.23;;;9.15;;
69087;SDS011;56190;43.562;5.036;2022-12-20T09:20:43;26.55;;;14.10;;
69087;SDS011;56190;43.562;5.036;2022-12-20T09:23:09;33.58;;;20.08;;
69087;SDS011;56190;43.562;5.036;2022-12-20T09:25:34;41.90;;;25.50;;
69087;SDS011;56190;43.562;5.036;2022-12-20T09:28:01;39.38;;;26.67;;
69087;SDS011;56190;43.562;5.036;2022-12-20T09:30:26;35.15;;;21.88;;
69087;SDS011;56190;43.562;5.036;2022-12-20T09:32:52;25.40;;;17.38;;
69087;SDS011;56190;43.562;5.036;2022-12-20T09:35:17;18.38;;;11.48;;
69087;SDS011;56190;43.562;5.036;2022-12-20T09:37:42;12.15;;;7.38;;
69087;SDS011;56190;43.562;5.036;2022-12-20T09:40:13;10.73;;;6.43;;
69087;SDS011;56190;43.562;5.036;2022-12-20T09:45:06;9.77;;;6.35;;
69087;SDS011;56190;43.562;5.036;2022-12-20T09:47:33;13.88;;;8.80;;
69087;SDS011;56190;43.562;5.036;2022-12-20T09:49:59;15.50;;;9.55;;
69087;SDS011;56190;43.562;5.036;2022-12-20T09:59:59;29.85;;;18.55;;
69087;SDS011;56190;43.562;5.036;2022-12-20T10:02:25;31.52;;;20.05;;
69087;SDS011;56190;43.562;5.036;2022-12-20T10:04:51;23.73;;;15.98;;
69087;SDS011;56190;43.562;5.036;2022-12-20T10:07:34;15.25;;;7.47;;
69087;SDS011;56190;43.562;5.036;2022-12-20T10:10:22;10.95;;;5.43;;
69087;SDS011;56190;43.562;5.036;2022-12-20T10:15:37;10.25;;;4.75;;
69087;SDS011;56190;43.562;5.036;2022-12-20T10:18:10;9.82;;;4.10;;
69087;SDS011;56190;43.562;5.036;2022-12-20T10:20:55;9.45;;;4.75;;
69087;SDS011;56190;43.562;5.036;2022-12-20T10:26:04;24.05;;;15.05;;
69087;SDS011;56190;43.562;5.036;2022-12-20T10:28:33;15.23;;;10.07;;
69087;SDS011;56190;43.562;5.036;2022-12-20T10:31:02;16.85;;;9.75;;
69087;SDS011;56190;43.562;5.036;2022-12-20T10:33:29;16.60;;;9.60;;
69087;SDS011;56190;43.562;5.036;2022-12-20T10:35:55;21.15;;;12.63;;
69087;SDS011;56190;43.562;5.036;2022-12-20T10:38:44;19.98;;;12.40;;
69087;SDS011;56190;43.562;5.036;2022-12-20T10:41:12;24.20;;;16.02;;
69087;SDS011;56190;43.562;5.036;2022-12-20T10:43:43;30.13;;;22.55;;
69087;SDS011;56190;43.562;5.036;2022-12-20T10:46:09;23.30;;;14.70;;
69087;SDS011;56190;43.562;5.036;2022-12-20T10:48:38;11.48;;;7.95;;
69087;SDS011;56190;43.562;5.036;2022-12-20T10:53:32;6.97;;;4.15;;
69087;SDS011;56190;43.562;5.036;2022-12-20T10:58:42;10.00;;;3.67;;
69087;SDS011;56190;43.562;5.036;2022-12-20T11:01:13;8.18;;;2.60;;
69087;SDS011;56190;43.562;5.036;2022-12-20T11:12:10;6.22;;;1.77;;
69087;SDS011;56190;43.562;5.036;2022-12-20T11:14:32;6.18;;;1.70;;
69087;SDS011;56190;43.562;5.036;2022-12-20T11:16:58;9.27;;;2.40;;
69087;SDS011;56190;43.562;5.036;2022-12-20T11:19:30;8.52;;;2.33;;
69087;SDS011;56190;43.562;5.036;2022-12-20T11:25:15;7.43;;;1.65;;
69087;SDS011;56190;43.562;5.036;2022-12-20T11:30:19;7.90;;;2.40;;
69087;SDS011;56190;43.562;5.036;2022-12-20T11:32:49;8.02;;;2.17;;
69087;SDS011;56190;43.562;5.036;2022-12-20T11:35:18;5.78;;;1.92;;
69087;SDS011;56190;43.562;5.036;2022-12-20T11:38:02;7.78;;;2.17;;
69087;SDS011;56190;43.562;5.036;2022-12-20T11:48:06;6.85;;;2.15;;
69087;SDS011;56190;43.562;5.036;2022-12-20T11:55:43;8.88;;;3.33;;
69087;SDS011;56190;43.562;5.036;2022-12-20T11:58:13;6.47;;;3.00;;
69087;SDS011;56190;43.562;5.036;2022-12-20T12:00:40;9.73;;;2.97;;
69087;SDS011;56190;43.562;5.036;2022-12-20T12:05:40;10.13;;;2.97;;
69087;SDS011;56190;43.562;5.036;2022-12-20T12:08:09;12.18;;;5.93;;
69087;SDS011;56190;43.562;5.036;2022-12-20T12:10:38;7.93;;;2.70;;
69087;SDS011;56190;43.562;5.036;2022-12-20T12:15:34;10.63;;;3.50;;
69087;SDS011;56190;43.562;5.036;2022-12-20T12:18:12;10.75;;;3.00;;
69087;SDS011;56190;43.562;5.036;2022-12-20T12:23:12;7.10;;;2.75;;
69087;SDS011;56190;43.562;5.036;2022-12-20T12:25:40;10.93;;;3.13;;
69087;SDS011;56190;43.562;5.036;2022-12-20T12:28:05;8.90;;;2.40;;
69087;SDS011;56190;43.562;5.036;2022-12-20T12:30:35;7.88;;;2.33;;
69087;SDS011;56190;43.562;5.036;2022-12-20T12:33:02;9.30;;;2.13;;
69087;SDS011;56190;43.562;5.036;2022-12-20T12:35:47;7.72;;;3.33;;
69087;SDS011;56190;43.562;5.036;2022-12-20T12:46:26;11.52;;;2.72;;
69087;SDS011;56190;43.562;5.036;2022-12-20T12:51:31;10.45;;;2.90;;
69087;SDS011;56190;43.562;5.036;2022-12-20T12:54:16;7.95;;;2.00;;
69087;SDS011;56190;43.562;5.036;2022-12-20T12:56:46;6.75;;;1.80;;
69087;SDS011;56190;43.562;5.036;2022-12-20T13:04:09;6.93;;;2.05;;
69087;SDS011;56190;43.562;5.036;2022-12-20T13:11:38;6.97;;;2.33;;
69087;SDS011;56190;43.562;5.036;2022-12-20T13:16:39;5.90;;;2.10;;
69087;SDS011;56190;43.562;5.036;2022-12-20T13:19:14;8.88;;;2.20;;
69087;SDS011;56190;43.562;5.036;2022-12-20T13:21:46;5.95;;;2.25;;
69087;SDS011;56190;43.562;5.036;2022-12-20T13:26:53;6.20;;;1.85;;
69087;SDS011;56190;43.562;5.036;2022-12-20T13:29:25;10.98;;;2.17;;
69087;SDS011;56190;43.562;5.036;2022-12-20T13:37:00;7.53;;;2.00;;
69087;SDS011;56190;43.562;5.036;2022-12-20T13:41:52;7.20;;;1.83;;
69087;SDS011;56190;43.562;5.036;2022-12-20T13:44:35;5.40;;;1.90;;
69087;SDS011;56190;43.562;5.036;2022-12-20T13:49:31;5.32;;;1.70;;
69087;SDS011;56190;43.562;5.036;2022-12-20T13:52:43;6.13;;;1.80;;
69087;SDS011;56190;43.562;5.036;2022-12-20T13:54:44;7.35;;;2.10;;
69087;SDS011;56190;43.562;5.036;2022-12-20T13:57:15;6.07;;;1.90;;
69087;SDS011;56190;43.562;5.036;2022-12-20T13:59:42;9.85;;;2.20;;
69087;SDS011;56190;43.562;5.036;2022-12-20T14:02:10;9.68;;;2.30;;
69087;SDS011;56190;43.562;5.036;2022-12-20T14:04:42;4.60;;;2.10;;
69087;SDS011;56190;43.562;5.036;2022-12-20T14:07:09;9.80;;;1.90;;
69087;SDS011;56190;43.562;5.036;2022-12-20T14:09:36;10.27;;;2.03;;
69087;SDS011;56190;43.562;5.036;2022-12-20T14:12:06;7.75;;;2.08;;
69087;SDS011;56190;43.562;5.036;2022-12-20T14:14:40;7.20;;;1.73;;
69087;SDS011;56190;43.562;5.036;2022-12-20T14:19:47;7.20;;;1.83;;
69087;SDS011;56190;43.562;5.036;2022-12-20T14:22:12;7.47;;;1.80;;
69087;SDS011;56190;43.562;5.036;2022-12-20T14:24:41;9.27;;;1.90;;
69087;SDS011;56190;43.562;5.036;2022-12-20T14:27:09;6.85;;;2.47;;
69087;SDS011;56190;43.562;5.036;2022-12-20T14:29:36;6.18;;;1.85;;
69087;SDS011;56190;43.562;5.036;2022-12-20T14:32:03;8.80;;;2.05;;
69087;SDS011;56190;43.562;5.036;2022-12-20T14:34:30;10.60;;;2.40;;
69087;SDS011;56190;43.562;5.036;2022-12-20T14:39:52;6.03;;;1.85;;
69087;SDS011;56190;43.562;5.036;2022-12-20T14:42:18;9.90;;;2.60;;
69087;SDS011;56190;43.562;5.036;2022-12-20T14:44:45;9.77;;;2.38;;
69087;SDS011;56190;43.562;5.036;2022-12-20T14:49:35;8.73;;;2.10;;
69087;SDS011;56190;43.562;5.036;2022-12-20T14:54:30;6.88;;;1.80;;
69087;SDS011;56190;43.562;5.036;2022-12-20T14:56:56;9.88;;;2.60;;
69087;SDS011;56190;43.562;5.036;2022-12-20T14:59:25;9.95;;;2.30;;
69087;SDS011;56190;43.562;5.036;2022-12-20T15:01:50;9.07;;;2.83;;
69087;SDS011;56190;43.562;5.036;2022-12-20T15:06:44;15.93;;;8.30;;
69087;SDS011;56190;43.562;5.036;2022-12-20T15:09:12;10.23;;;2.85;;
69087;SDS011;56190;43.562;5.036;2022-12-20T15:11:38;9.10;;;3.17;;
69087;SDS011;56190;43.562;5.036;2022-12-20T15:14:19;10.13;;;2.83;;
69087;SDS011;56190;43.562;5.036;2022-12-20T15:16:46;12.60;;;2.63;;
69087;SDS011;56190;43.562;5.036;2022-12-20T15:19:12;7.28;;;2.38;;
69087;SDS011;56190;43.562;5.036;2022-12-20T15:21:38;10.43;;;2.97;;
69087;SDS011;56190;43.562;5.036;2022-12-20T15:24:40;12.88;;;4.13;;
69087;SDS011;56190;43.562;5.036;2022-12-20T15:26:58;8.82;;;2.58;;
69087;SDS011;56190;43.562;5.036;2022-12-20T15:29:24;16.42;;;7.30;;
69087;SDS011;56190;43.562;5.036;2022-12-20T15:31:50;9.35;;;2.83;;
69087;SDS011;56190;43.562;5.036;2022-12-20T15:34:22;15.10;;;13.27;;
69087;SDS011;56190;43.562;5.036;2022-12-20T15:36:49;13.23;;;5.90;;
69087;SDS011;56190;43.562;5.036;2022-12-20T15:39:14;12.95;;;4.72;;
69087;SDS011;56190;43.562;5.036;2022-12-20T15:41:42;80.80;;;49.45;;
69087;SDS011;56190;43.562;5.036;2022-12-20T15:44:18;12.70;;;5.35;;
69087;SDS011;56190;43.562;5.036;2022-12-20T15:46:43;24.52;;;17.30;;
69087;SDS011;56190;43.562;5.036;2022-12-20T15:49:19;16.77;;;10.35;;
69087;SDS011;56190;43.562;5.036;2022-12-20T15:51:46;10.43;;;5.22;;
69087;SDS011;56190;43.562;5.036;2022-12-20T15:56:51;14.95;;;11.85;;
69087;SDS011;56190;43.562;5.036;2022-12-20T15:59:16;18.77;;;13.50;;
69087;SDS011;56190;43.562;5.036;2022-12-20T16:01:42;19.77;;;15.55;;
69087;SDS011;56190;43.562;5.036;2022-12-20T16:04:09;14.48;;;7.68;;
69087;SDS011;56190;43.562;5.036;2022-12-20T16:06:37;13.10;;;6.25;;
69087;SDS011;56190;43.562;5.036;2022-12-20T16:09:02;9.45;;;3.50;;
69087;SDS011;56190;43.562;5.036;2022-12-20T16:11:28;8.75;;;5.22;;
69087;SDS011;56190;43.562;5.036;2022-12-20T16:13:54;10.65;;;4.68;;
69087;SDS011;56190;43.562;5.036;2022-12-20T16:16:20;12.50;;;4.15;;
69087;SDS011;56190;43.562;5.036;2022-12-20T16:18:46;10.20;;;7.45;;
69087;SDS011;56190;43.562;5.036;2022-12-20T16:21:18;14.45;;;7.53;;
69087;SDS011;56190;43.562;5.036;2022-12-20T16:23:44;9.80;;;4.50;;
69087;SDS011;56190;43.562;5.036;2022-12-20T16:26:13;9.00;;;3.83;;
69087;SDS011;56190;43.562;5.036;2022-12-20T16:28:38;9.88;;;3.30;;
69087;SDS011;56190;43.562;5.036;2022-12-20T16:31:09;9.25;;;2.88;;
69087;SDS011;56190;43.562;5.036;2022-12-20T16:33:34;10.63;;;5.32;;
69087;SDS011;56190;43.562;5.036;2022-12-20T16:35:59;10.63;;;3.83;;
69087;SDS011;56190;43.562;5.036;2022-12-20T16:38:25;8.57;;;3.17;;
69087;SDS011;56190;43.562;5.036;2022-12-20T16:40:51;10.10;;;3.28;;
69087;SDS011;56190;43.562;5.036;2022-12-20T16:43:16;10.27;;;3.33;;